sensor_id;sensor_type;location;lat;lon;timestamp;pressure;altitude;pressure_sealevel;temperature;humidity
36254;BME280;22291;52.250;21.228;2023-05-19T00:00:56;101436.83;;;10.93;80.47
36254;BME280;22291;52.250;21.228;2023-05-19T00:03:26;101437.11;;;10.92;80.40
36254;BME280;22291;52.250;21.228;2023-05-19T00:05:54;101435.48;;;10.91;80.52
36254;BME280;22291;52.250;21.228;2023-05-19T00:08:22;101436.31;;;10.89;80.51
36254;BME280;22291;52.250;21.228;2023-05-19T00:10:50;101436.31;;;10.89;80.76
36254;BME280;22291;52.250;21.228;2023-05-19T00:13:18;101433.89;;;10.87;80.91
36254;BME280;22291;52.250;21.228;2023-05-19T00:15:46;101438.78;;;10.85;80.94
36254;BME280;22291;52.250;21.228;2023-05-19T00:18:13;101436.64;;;10.84;80.94
36254;BME280;22291;52.250;21.228;2023-05-19T00:20:41;101439.86;;;10.84;81.25
36254;BME280;22291;52.250;21.228;2023-05-19T00:23:09;101437.44;;;10.82;81.57
36254;BME280;22291;52.250;21.228;2023-05-19T00:25:35;101437.71;;;10.83;81.81
36254;BME280;22291;52.250;21.228;2023-05-19T00:28:02;101439.90;;;10.81;81.80
36254;BME280;22291;52.250;21.228;2023-05-19T00:30:29;101434.25;;;10.78;81.99
36254;BME280;22291;52.250;21.228;2023-05-19T00:32:56;101432.89;;;10.78;82.19
36254;BME280;22291;52.250;21.228;2023-05-19T00:35:22;101431.81;;;10.76;82.32
36254;BME280;22291;52.250;21.228;2023-05-19T00:37:48;101431.81;;;10.76;82.38
36254;BME280;22291;52.250;21.228;2023-05-19T00:40:15;101428.04;;;10.75;82.55
36254;BME280;22291;52.250;21.228;2023-05-19T00:42:43;101428.28;;;10.76;82.66
36254;BME280;22291;52.250;21.228;2023-05-19T00:45:09;101424.26;;;10.73;82.74
36254;BME280;22291;52.250;21.228;2023-05-19T00:47:35;101422.91;;;10.71;82.92
36254;BME280;22291;52.250;21.228;2023-05-19T00:50:02;101419.96;;;10.70;82.99
36254;BME280;22291;52.250;21.228;2023-05-19T00:52:29;101421.59;;;10.68;83.12
36254;BME280;22291;52.250;21.228;2023-05-19T00:54:56;101415.11;;;10.67;83.39
36254;BME280;22291;52.250;21.228;2023-05-19T00:57:23;101415.91;;;10.67;83.32
36254;BME280;22291;52.250;21.228;2023-05-19T00:59:49;101417.53;;;10.65;83.38
36254;BME280;22291;52.250;21.228;2023-05-19T01:02:15;101420.80;;;10.65;83.51
36254;BME280;22291;52.250;21.228;2023-05-19T01:04:43;101414.06;;;10.62;83.26
36254;BME280;22291;52.250;21.228;2023-05-19T01:07:10;101416.22;;;10.63;83.75
36254;BME280;22291;52.250;21.228;2023-05-19T01:09:37;101423.53;;;10.62;83.58
36254;BME280;22291;52.250;21.228;2023-05-19T01:15:04;101414.06;;;10.60;83.48
36254;BME280;22291;52.250;21.228;2023-05-19T01:20:50;101411.36;;;10.60;83.41
36254;BME280;22291;52.250;21.228;2023-05-19T01:23:42;101414.62;;;10.59;83.64
36254;BME280;22291;52.250;21.228;2023-05-19T01:29:27;101403.52;;;10.58;83.83
36254;BME280;22291;52.250;21.228;2023-05-19T01:31:57;101401.92;;;10.57;83.76
36254;BME280;22291;52.250;21.228;2023-05-19T01:34:26;101402.20;;;10.56;83.68
36254;BME280;22291;52.250;21.228;2023-05-19T01:36:54;101410.32;;;10.56;83.50
36254;BME280;22291;52.250;21.228;2023-05-19T01:39:22;101405.98;;;10.55;83.77
36254;BME280;22291;52.250;21.228;2023-05-19T01:41:49;101406.55;;;10.54;83.81
36254;BME280;22291;52.250;21.228;2023-05-19T01:44:16;101404.36;;;10.54;84.12
36254;BME280;22291;52.250;21.228;2023-05-19T01:46:45;101404.12;;;10.53;83.96
36254;BME280;22291;52.250;21.228;2023-05-19T01:49:14;101405.75;;;10.51;84.38
36254;BME280;22291;52.250;21.228;2023-05-19T01:51:41;101399.53;;;10.51;84.32
36254;BME280;22291;52.250;21.228;2023-05-19T01:54:10;101402.25;;;10.48;84.20
36254;BME280;22291;52.250;21.228;2023-05-19T01:57:13;101403.33;;;10.47;84.20
36254;BME280;22291;52.250;21.228;2023-05-19T02:00:10;101404.42;;;10.46;84.50
36254;BME280;22291;52.250;21.228;2023-05-19T02:08:50;101395.27;;;10.39;85.21
36254;BME280;22291;52.250;21.228;2023-05-19T02:11:37;101391.77;;;10.39;85.49
36254;BME280;22291;52.250;21.228;2023-05-19T02:14:15;101392.33;;;10.36;85.43
36254;BME280;22291;52.250;21.228;2023-05-19T02:16:47;101386.12;;;10.35;85.73
36254;BME280;22291;52.250;21.228;2023-05-19T02:19:30;101390.45;;;10.34;85.84
36254;BME280;22291;52.250;21.228;2023-05-19T02:21:57;101385.05;;;10.34;85.88
36254;BME280;22291;52.250;21.228;2023-05-19T02:24:26;101385.84;;;10.34;85.76
36254;BME280;22291;52.250;21.228;2023-05-19T02:26:53;101382.06;;;10.35;85.81
36254;BME280;22291;52.250;21.228;2023-05-19T02:29:20;101381.51;;;10.36;85.84
36254;BME280;22291;52.250;21.228;2023-05-19T02:31:46;101382.06;;;10.35;86.04
36254;BME280;22291;52.250;21.228;2023-05-19T02:34:13;101379.36;;;10.35;85.80
36254;BME280;22291;52.250;21.228;2023-05-19T02:36:41;101378.00;;;10.35;85.67
36254;BME280;22291;52.250;21.228;2023-05-19T02:39:11;101378.25;;;10.36;85.69
36254;BME280;22291;52.250;21.228;2023-05-19T02:41:37;101379.33;;;10.38;85.93
36254;BME280;22291;52.250;21.228;2023-05-19T02:44:07;101383.38;;;10.38;86.25
36254;BME280;22291;52.250;21.228;2023-05-19T02:46:33;101387.16;;;10.37;86.13
36254;BME280;22291;52.250;21.228;2023-05-19T02:48:59;101388.27;;;10.36;86.13
36254;BME280;22291;52.250;21.228;2023-05-19T02:51:25;101386.12;;;10.35;86.28
36254;BME280;22291;52.250;21.228;2023-05-19T02:53:57;101393.67;;;10.36;86.56
36254;BME280;22291;52.250;21.228;2023-05-19T02:56:28;101386.36;;;10.36;86.69
36254;BME280;22291;52.250;21.228;2023-05-19T02:58:57;101387.99;;;10.37;86.87
36254;BME280;22291;52.250;21.228;2023-05-19T03:01:23;101387.99;;;10.37;86.61
36254;BME280;22291;52.250;21.228;2023-05-19T03:03:50;101392.05;;;10.37;87.12
36254;BME280;22291;52.250;21.228;2023-05-19T03:06:15;101392.05;;;10.37;86.99
36254;BME280;22291;52.250;21.228;2023-05-19T03:08:43;101397.42;;;10.40;87.00
36254;BME280;22291;52.250;21.228;2023-05-19T03:11:11;101396.08;;;10.40;87.35
36254;BME280;22291;52.250;21.228;2023-05-19T03:13:41;101395.55;;;10.40;87.61
36254;BME280;22291;52.250;21.228;2023-05-19T03:16:08;101395.55;;;10.40;87.91
36254;BME280;22291;52.250;21.228;2023-05-19T03:18:34;101394.72;;;10.40;87.96
36254;BME280;22291;52.250;21.228;2023-05-19T03:21:05;101397.98;;;10.39;87.87
36254;BME280;22291;52.250;21.228;2023-05-19T03:23:31;101401.20;;;10.41;87.85
36254;BME280;22291;52.250;21.228;2023-05-19T03:25:59;101402.00;;;10.44;88.25
36254;BME280;22291;52.250;21.228;2023-05-19T03:28:25;101396.03;;;10.48;88.73
36254;BME280;22291;52.250;21.228;2023-05-19T03:30:54;101397.08;;;10.52;88.97
36254;BME280;22291;52.250;21.228;2023-05-19T03:33:21;101398.67;;;10.58;89.50
36254;BME280;22291;52.250;21.228;2023-05-19T03:35:49;101396.17;;;10.64;89.75
36254;BME280;22291;52.250;21.228;2023-05-19T03:38:15;101402.89;;;10.69;89.43
36254;BME280;22291;52.250;21.228;2023-05-19T03:40:47;101398.55;;;10.73;89.23
36254;BME280;22291;52.250;21.228;2023-05-19T03:43:13;101400.15;;;10.74;88.92
36254;BME280;22291;52.250;21.228;2023-05-19T03:45:43;101403.69;;;10.75;88.94
36254;BME280;22291;52.250;21.228;2023-05-19T03:48:11;101399.59;;;10.77;89.04
36254;BME280;22291;52.250;21.228;2023-05-19T03:50:37;101398.51;;;10.78;88.72
36254;BME280;22291;52.250;21.228;2023-05-19T03:53:07;101398.51;;;10.78;88.72
36254;BME280;22291;52.250;21.228;2023-05-19T03:55:38;101395.25;;;10.79;88.96
36254;BME280;22291;52.250;21.228;2023-05-19T03:58:06;101399.58;;;10.80;89.16
36254;BME280;22291;52.250;21.228;2023-05-19T04:00:36;101399.02;;;10.83;89.11
36254;BME280;22291;52.250;21.228;2023-05-19T04:03:03;101388.71;;;10.85;89.32
36254;BME280;22291;52.250;21.228;2023-05-19T04:05:34;101397.34;;;10.90;89.56
36254;BME280;22291;52.250;21.228;2023-05-19T04:08:01;101397.30;;;10.95;89.55
36254;BME280;22291;52.250;21.228;2023-05-19T04:10:28;101395.11;;;10.97;89.32
36254;BME280;22291;52.250;21.228;2023-05-19T04:12:56;101398.85;;;11.01;89.27
36254;BME280;22291;52.250;21.228;2023-05-19T04:15:24;101398.84;;;11.03;89.40
36254;BME280;22291;52.250;21.228;2023-05-19T04:17:54;101395.02;;;11.05;89.46
36254;BME280;22291;52.250;21.228;2023-05-19T04:20:21;101397.73;;;11.05;89.13
36254;BME280;22291;52.250;21.228;2023-05-19T04:22:50;101390.16;;;11.04;88.98
36254;BME280;22291;52.250;21.228;2023-05-19T04:25:16;101390.16;;;11.04;89.19
36254;BME280;22291;52.250;21.228;2023-05-19T04:27:46;101390.67;;;11.09;89.19
36254;BME280;22291;52.250;21.228;2023-05-19T04:30:14;101389.31;;;11.09;88.86
36254;BME280;22291;52.250;21.228;2023-05-19T04:32:43;101390.95;;;11.07;88.94
36254;BME280;22291;52.250;21.228;2023-05-19T04:35:11;101396.61;;;11.08;88.94
36254;BME280;22291;52.250;21.228;2023-05-19T04:37:41;101392.83;;;11.09;89.09
36254;BME280;22291;52.250;21.228;2023-05-19T04:40:14;101391.74;;;11.10;89.08
36254;BME280;22291;52.250;21.228;2023-05-19T04:42:43;101394.13;;;11.14;89.40
36254;BME280;22291;52.250;21.228;2023-05-19T04:45:17;101395.98;;;11.19;89.48
36254;BME280;22291;52.250;21.228;2023-05-19T04:47:46;101398.94;;;11.20;88.99
36254;BME280;22291;52.250;21.228;2023-05-19T04:50:14;101400.84;;;11.22;89.03
36254;BME280;22291;52.250;21.228;2023-05-19T04:52:42;101397.58;;;11.23;89.08
36254;BME280;22291;52.250;21.228;2023-05-19T04:55:10;101397.25;;;11.27;89.14
36254;BME280;22291;52.250;21.228;2023-05-19T04:57:38;101404.53;;;11.29;88.85
36254;BME280;22291;52.250;21.228;2023-05-19T05:00:13;101401.53;;;11.33;89.02
36254;BME280;22291;52.250;21.228;2023-05-19T05:02:41;101399.61;;;11.36;89.12
36254;BME280;22291;52.250;21.228;2023-05-19T05:05:09;101405.83;;;11.36;88.67
36254;BME280;22291;52.250;21.228;2023-05-19T05:07:35;101406.91;;;11.35;88.32
36254;BME280;22291;52.250;21.228;2023-05-19T05:10:07;101405.03;;;11.36;88.39
36254;BME280;22291;52.250;21.228;2023-05-19T05:12:44;101404.98;;;11.38;88.79
36254;BME280;22291;52.250;21.228;2023-05-19T05:15:20;101400.91;;;11.41;88.73
36254;BME280;22291;52.250;21.228;2023-05-19T05:17:56;101403.58;;;11.44;88.73
36254;BME280;22291;52.250;21.228;2023-05-19T05:20:32;101404.93;;;11.44;88.24
36254;BME280;22291;52.250;21.228;2023-05-19T05:23:12;101402.22;;;11.44;87.97
36254;BME280;22291;52.250;21.228;2023-05-19T05:25:45;101403.34;;;11.43;88.05
36254;BME280;22291;52.250;21.228;2023-05-19T05:28:16;101397.64;;;11.42;88.01
36254;BME280;22291;52.250;21.228;2023-05-19T05:30:44;101398.72;;;11.43;88.23
36254;BME280;22291;52.250;21.228;2023-05-19T05:33:15;101404.92;;;11.46;88.12
36254;BME280;22291;52.250;21.228;2023-05-19T05:35:45;101407.58;;;11.49;88.12
36254;BME280;22291;52.250;21.228;2023-05-19T05:38:14;101401.09;;;11.50;87.99
36254;BME280;22291;52.250;21.228;2023-05-19T05:40:40;101403.80;;;11.50;87.98
36254;BME280;22291;52.250;21.228;2023-05-19T05:43:06;101401.59;;;11.52;87.73
36254;BME280;22291;52.250;21.228;2023-05-19T05:45:33;101405.89;;;11.55;88.21
36254;BME280;22291;52.250;21.228;2023-05-19T05:48:10;101400.97;;;11.60;88.19
36254;BME280;22291;52.250;21.228;2023-05-19T05:50:39;101406.05;;;11.64;87.81
36254;BME280;22291;52.250;21.228;2023-05-19T05:53:19;101401.70;;;11.66;87.67
36254;BME280;22291;52.250;21.228;2023-05-19T05:55:48;101403.84;;;11.69;87.72
36254;BME280;22291;52.250;21.228;2023-05-19T05:58:18;101404.87;;;11.73;87.70
36254;BME280;22291;52.250;21.228;2023-05-19T06:01:04;101404.56;;;11.77;87.69
36254;BME280;22291;52.250;21.228;2023-05-19T06:03:32;101407.45;;;11.83;88.01
36254;BME280;22291;52.250;21.228;2023-05-19T06:06:05;101404.97;;;11.92;88.08
36254;BME280;22291;52.250;21.228;2023-05-19T06:08:35;101400.83;;;11.97;88.08
36254;BME280;22291;52.250;21.228;2023-05-19T06:11:01;101404.27;;;12.03;87.71
36254;BME280;22291;52.250;21.228;2023-05-19T06:13:34;101408.78;;;12.10;87.41
36254;BME280;22291;52.250;21.228;2023-05-19T06:16:20;101408.16;;;12.15;87.70
36254;BME280;22291;52.250;21.228;2023-05-19T06:18:46;101408.33;;;12.24;87.34
36254;BME280;22291;52.250;21.228;2023-05-19T06:21:15;101412.83;;;12.31;87.20
36254;BME280;22291;52.250;21.228;2023-05-19T06:23:43;101409.25;;;12.36;86.92
36254;BME280;22291;52.250;21.228;2023-05-19T06:26:15;101406.22;;;12.38;86.88
36254;BME280;22291;52.250;21.228;2023-05-19T06:28:41;101414.26;;;12.45;86.69
36254;BME280;22291;52.250;21.228;2023-05-19T06:31:07;101417.75;;;12.48;86.24
36254;BME280;22291;52.250;21.228;2023-05-19T06:33:36;101413.97;;;12.47;85.80
36254;BME280;22291;52.250;21.228;2023-05-19T06:36:07;101410.96;;;12.48;86.03
36254;BME280;22291;52.250;21.228;2023-05-19T06:38:36;101409.02;;;12.51;86.11
36254;BME280;22291;52.250;21.228;2023-05-19T06:41:02;101409.47;;;12.56;85.98
36254;BME280;22291;52.250;21.228;2023-05-19T06:43:28;101403.25;;;12.56;85.54
36254;BME280;22291;52.250;21.228;2023-05-19T06:46:05;101411.68;;;12.54;84.99
36254;BME280;22291;52.250;21.228;2023-05-19T06:48:33;101412.48;;;12.55;85.37
36254;BME280;22291;52.250;21.228;2023-05-19T06:51:03;101410.03;;;12.56;85.06
36254;BME280;22291;52.250;21.228;2023-05-19T06:53:46;101410.33;;;12.54;84.92
36254;BME280;22291;52.250;21.228;2023-05-19T06:56:24;101408.12;;;12.56;85.18
36254;BME280;22291;52.250;21.228;2023-05-19T06:58:54;101410.30;;;12.57;84.79
36254;BME280;22291;52.250;21.228;2023-05-19T07:01:20;101405.41;;;12.56;84.58
36254;BME280;22291;52.250;21.228;2023-05-19T07:03:46;101404.58;;;12.58;84.89
36254;BME280;22291;52.250;21.228;2023-05-19T07:06:20;101400.66;;;12.64;85.16
36254;BME280;22291;52.250;21.228;2023-05-19T07:08:50;101402.50;;;12.69;85.07
36254;BME280;22291;52.250;21.228;2023-05-19T07:11:19;101402.16;;;12.73;84.83
36254;BME280;22291;52.250;21.228;2023-05-19T07:13:52;101400.98;;;12.79;85.17
36254;BME280;22291;52.250;21.228;2023-05-19T07:16:23;101403.84;;;12.85;84.85
36254;BME280;22291;52.250;21.228;2023-05-19T07:18:52;101405.95;;;12.91;84.99
36254;BME280;22291;52.250;21.228;2023-05-19T07:21:24;101404.73;;;12.97;84.93
36254;BME280;22291;52.250;21.228;2023-05-19T07:23:50;101399.75;;;13.04;84.64
36254;BME280;22291;52.250;21.228;2023-05-19T07:26:17;101403.44;;;13.11;84.71
36254;BME280;22291;52.250;21.228;2023-05-19T07:28:45;101401.69;;;13.18;84.38
36254;BME280;22291;52.250;21.228;2023-05-19T07:31:15;101398.41;;;13.18;83.73
36254;BME280;22291;52.250;21.228;2023-05-19T07:33:42;101403.05;;;13.18;83.36
36254;BME280;22291;52.250;21.228;2023-05-19T07:36:09;101406.00;;;13.19;83.25
36254;BME280;22291;52.250;21.228;2023-05-19T07:38:38;101402.48;;;13.18;82.90
36254;BME280;22291;52.250;21.228;2023-05-19T07:41:06;101407.66;;;13.17;82.71
36254;BME280;22291;52.250;21.228;2023-05-19T07:43:32;101400.66;;;13.14;82.53
36254;BME280;22291;52.250;21.228;2023-05-19T07:46:02;101399.89;;;13.11;82.49
36254;BME280;22291;52.250;21.228;2023-05-19T07:48:34;101400.72;;;13.11;82.62
36254;BME280;22291;52.250;21.228;2023-05-19T07:51:05;101403.97;;;13.11;82.64
36254;BME280;22291;52.250;21.228;2023-05-19T07:53:33;101401.52;;;13.12;82.47
36254;BME280;22291;52.250;21.228;2023-05-19T07:56:04;101397.73;;;13.10;82.25
36254;BME280;22291;52.250;21.228;2023-05-19T07:58:39;101403.47;;;13.08;82.18
36254;BME280;22291;52.250;21.228;2023-05-19T08:01:19;101399.36;;;13.11;82.26
36254;BME280;22291;52.250;21.228;2023-05-19T08:03:49;101402.31;;;13.12;81.94
36254;BME280;22291;52.250;21.228;2023-05-19T08:06:18;101397.17;;;13.11;81.74
36254;BME280;22291;52.250;21.228;2023-05-19T08:08:47;101399.00;;;13.15;82.00
36254;BME280;22291;52.250;21.228;2023-05-19T08:11:21;101394.46;;;13.11;81.37
36254;BME280;22291;52.250;21.228;2023-05-19T08:13:47;101394.96;;;13.13;81.58
36254;BME280;22291;52.250;21.228;2023-05-19T08:16:21;101393.28;;;13.17;81.79
36254;BME280;22291;52.250;21.228;2023-05-19T08:18:47;101396.70;;;13.22;81.82
36254;BME280;22291;52.250;21.228;2023-05-19T08:21:40;101391.77;;;13.24;81.44
36254;BME280;22291;52.250;21.228;2023-05-19T08:24:08;101393.29;;;13.31;81.47
36254;BME280;22291;52.250;21.228;2023-05-19T08:26:35;101394.02;;;13.36;81.56
36254;BME280;22291;52.250;21.228;2023-05-19T08:29:04;101388.95;;;13.46;81.97
36254;BME280;22291;52.250;21.228;2023-05-19T08:31:33;101393.19;;;13.52;81.56
36254;BME280;22291;52.250;21.228;2023-05-19T08:33:59;101398.83;;;13.56;80.61
36254;BME280;22291;52.250;21.228;2023-05-19T08:36:27;101400.48;;;13.54;80.67
36254;BME280;22291;52.250;21.228;2023-05-19T08:38:55;101403.60;;;13.61;81.14
36254;BME280;22291;52.250;21.228;2023-05-19T08:41:22;101398.06;;;13.67;80.83
36254;BME280;22291;52.250;21.228;2023-05-19T08:43:48;101405.12;;;13.68;80.00
36254;BME280;22291;52.250;21.228;2023-05-19T08:46:23;101401.27;;;13.69;79.89
36254;BME280;22291;52.250;21.228;2023-05-19T08:48:57;101407.17;;;13.73;80.17
36254;BME280;22291;52.250;21.228;2023-05-19T08:51:39;101407.44;;;13.74;79.36
36254;BME280;22291;52.250;21.228;2023-05-19T08:54:13;101416.13;;;13.74;79.10
36254;BME280;22291;52.250;21.228;2023-05-19T08:56:47;101410.19;;;13.72;79.47
36254;BME280;22291;52.250;21.228;2023-05-19T08:59:22;101400.84;;;13.78;79.51
36254;BME280;22291;52.250;21.228;2023-05-19T09:01:57;101402.66;;;13.82;79.57
36254;BME280;22291;52.250;21.228;2023-05-19T09:04:27;101400.63;;;13.88;79.71
36254;BME280;22291;52.250;21.228;2023-05-19T09:06:55;101404.33;;;13.92;79.22
36254;BME280;22291;52.250;21.228;2023-05-19T09:09:30;101408.91;;;13.94;79.01
36254;BME280;22291;52.250;21.228;2023-05-19T09:11:58;101405.69;;;13.92;78.58
36254;BME280;22291;52.250;21.228;2023-05-19T09:14:27;101404.09;;;13.91;78.51
36254;BME280;22291;52.250;21.228;2023-05-19T09:16:58;101400.52;;;13.93;78.86
36254;BME280;22291;52.250;21.228;2023-05-19T09:19:28;101402.33;;;13.98;78.73
36254;BME280;22291;52.250;21.228;2023-05-19T09:22:04;101401.16;;;14.01;78.36
36254;BME280;22291;52.250;21.228;2023-05-19T09:24:33;101401.39;;;14.03;78.43
36254;BME280;22291;52.250;21.228;2023-05-19T09:27:02;101397.01;;;14.04;78.38
36254;BME280;22291;52.250;21.228;2023-05-19T09:29:37;101401.58;;;14.06;77.78
36254;BME280;22291;52.250;21.228;2023-05-19T09:32:07;101401.05;;;14.07;77.85
36254;BME280;22291;52.250;21.228;2023-05-19T09:34:41;101401.55;;;14.09;77.83
36254;BME280;22291;52.250;21.228;2023-05-19T09:37:07;101395.61;;;14.07;77.45
36254;BME280;22291;52.250;21.228;2023-05-19T09:39:35;101394.74;;;14.09;77.52
36254;BME280;22291;52.250;21.228;2023-05-19T09:42:05;101394.67;;;14.11;77.55
36254;BME280;22291;52.250;21.228;2023-05-19T09:44:34;101397.54;;;14.17;77.96
36254;BME280;22291;52.250;21.228;2023-05-19T09:47:03;101403.13;;;14.24;78.02
36254;BME280;22291;52.250;21.228;2023-05-19T09:49:30;101401.34;;;14.30;77.88
36254;BME280;22291;52.250;21.228;2023-05-19T09:52:06;101409.09;;;14.37;77.89
36254;BME280;22291;52.250;21.228;2023-05-19T09:54:39;101401.61;;;14.43;77.70
36254;BME280;22291;52.250;21.228;2023-05-19T09:57:32;101406.97;;;14.45;77.37
36254;BME280;22291;52.250;21.228;2023-05-19T10:00:08;101399.06;;;14.46;77.12
36254;BME280;22291;52.250;21.228;2023-05-19T10:02:47;101398.50;;;14.47;76.85
36254;BME280;22291;52.250;21.228;2023-05-19T10:05:17;101398.27;;;14.46;76.80
36254;BME280;22291;52.250;21.228;2023-05-19T10:07:46;101395.47;;;14.48;76.87
36254;BME280;22291;52.250;21.228;2023-05-19T10:10:14;101392.63;;;14.53;77.14
36254;BME280;22291;52.250;21.228;2023-05-19T10:12:41;101389.55;;;14.57;76.72
36254;BME280;22291;52.250;21.228;2023-05-19T10:15:12;101389.46;;;14.63;76.91
36254;BME280;22291;52.250;21.228;2023-05-19T10:17:42;101393.66;;;14.69;76.76
36254;BME280;22291;52.250;21.228;2023-05-19T10:20:14;101394.41;;;14.72;76.10
36254;BME280;22291;52.250;21.228;2023-05-19T10:22:44;101396.51;;;14.75;76.14
36254;BME280;22291;52.250;21.228;2023-05-19T10:25:14;101387.16;;;14.79;76.15
36254;BME280;22291;52.250;21.228;2023-05-19T10:27:58;101395.99;;;14.84;76.16
36254;BME280;22291;52.250;21.228;2023-05-19T10:30:38;101386.64;;;14.88;75.97
36254;BME280;22291;52.250;21.228;2023-05-19T10:33:10;101387.03;;;14.95;75.96
36254;BME280;22291;52.250;21.228;2023-05-19T10:35:58;101381.75;;;14.99;75.66
36254;BME280;22291;52.250;21.228;2023-05-19T10:46:42;101380.82;;;15.23;74.89
36254;BME280;22291;52.250;21.228;2023-05-19T10:49:19;101378.22;;;15.29;74.76
36254;BME280;22291;52.250;21.228;2023-05-19T10:51:51;101378.56;;;15.37;74.69
36254;BME280;22291;52.250;21.228;2023-05-19T10:54:40;101383.47;;;15.46;74.81
36254;BME280;22291;52.250;21.228;2023-05-19T10:57:16;101373.61;;;15.47;74.27
36254;BME280;22291;52.250;21.228;2023-05-19T10:59:45;101378.92;;;15.53;74.10
36254;BME280;22291;52.250;21.228;2023-05-19T11:02:43;101379.97;;;15.54;73.85
36254;BME280;22291;52.250;21.228;2023-05-19T11:05:14;101383.13;;;15.59;73.94
36254;BME280;22291;52.250;21.228;2023-05-19T11:07:55;101386.27;;;15.63;73.85
36254;BME280;22291;52.250;21.228;2023-05-19T11:10:25;101384.59;;;15.65;73.23
36254;BME280;22291;52.250;21.228;2023-05-19T11:12:52;101381.47;;;15.69;73.29
36254;BME280;22291;52.250;21.228;2023-05-19T11:15:26;101383.48;;;15.75;73.00
36254;BME280;22291;52.250;21.228;2023-05-19T11:17:54;101383.30;;;15.82;73.26
36254;BME280;22291;52.250;21.228;2023-05-19T11:23:05;101381.16;;;15.99;72.67
36254;BME280;22291;52.250;21.228;2023-05-19T11:25:43;101379.39;;;16.03;72.65
36254;BME280;22291;52.250;21.228;2023-05-19T11:28:14;101382.47;;;16.11;72.63
36254;BME280;22291;52.250;21.228;2023-05-19T11:30:46;101384.79;;;16.15;72.16
36254;BME280;22291;52.250;21.228;2023-05-19T11:33:21;101381.17;;;16.17;71.82
36254;BME280;22291;52.250;21.228;2023-05-19T11:35:52;101380.13;;;16.15;71.53
36254;BME280;22291;52.250;21.228;2023-05-19T11:38:24;101387.04;;;16.13;71.25
36254;BME280;22291;52.250;21.228;2023-05-19T11:40:54;101380.91;;;16.07;71.09
36254;BME280;22291;52.250;21.228;2023-05-19T11:43:26;101381.17;;;16.08;71.23
36254;BME280;22291;52.250;21.228;2023-05-19T11:45:55;101373.94;;;16.12;71.28
36254;BME280;22291;52.250;21.228;2023-05-19T11:48:25;101377.71;;;16.14;71.15
36254;BME280;22291;52.250;21.228;2023-05-19T11:50:51;101377.55;;;16.19;71.22
36254;BME280;22291;52.250;21.228;2023-05-19T11:53:23;101371.45;;;16.22;70.83
36254;BME280;22291;52.250;21.228;2023-05-19T11:55:49;101374.83;;;16.19;70.37
36254;BME280;22291;52.250;21.228;2023-05-19T11:58:17;101372.76;;;16.16;70.61
36254;BME280;22291;52.250;21.228;2023-05-19T12:00:50;101378.12;;;16.18;70.58
36254;BME280;22291;52.250;21.228;2023-05-19T12:03:21;101375.55;;;16.22;70.87
36254;BME280;22291;52.250;21.228;2023-05-19T12:05:50;101371.94;;;16.24;70.84
36254;BME280;22291;52.250;21.228;2023-05-19T12:08:18;101378.22;;;16.24;70.49
36254;BME280;22291;52.250;21.228;2023-05-19T12:10:47;101376.53;;;16.26;70.42
36254;BME280;22291;52.250;21.228;2023-05-19T12:13:15;101380.70;;;16.23;70.39
36254;BME280;22291;52.250;21.228;2023-05-19T12:15:42;101383.67;;;16.24;70.23
36254;BME280;22291;52.250;21.228;2023-05-19T12:18:09;101382.16;;;16.21;70.19
36254;BME280;22291;52.250;21.228;2023-05-19T12:20:35;101390.34;;;16.21;70.16
36254;BME280;22291;52.250;21.228;2023-05-19T12:23:02;101381.65;;;16.19;70.20
36254;BME280;22291;52.250;21.228;2023-05-19T12:25:30;101380.22;;;16.21;70.50
36254;BME280;22291;52.250;21.228;2023-05-19T12:27:58;101379.90;;;16.23;70.36
36254;BME280;22291;52.250;21.228;2023-05-19T12:30:28;101377.90;;;16.26;70.39
36254;BME280;22291;52.250;21.228;2023-05-19T12:32:55;101378.06;;;16.30;70.31
36254;BME280;22291;52.250;21.228;2023-05-19T12:35:30;101377.23;;;16.29;70.06
36254;BME280;22291;52.250;21.228;2023-05-19T12:37:55;101377.33;;;16.27;69.88
36254;BME280;22291;52.250;21.228;2023-05-19T12:40:22;101376.53;;;16.26;69.96
36254;BME280;22291;52.250;21.228;2023-05-19T12:42:48;101380.53;;;16.29;70.13
36254;BME280;22291;52.250;21.228;2023-05-19T12:45:19;101380.95;;;16.33;70.32
36254;BME280;22291;52.250;21.228;2023-05-19T12:47:48;101375.64;;;16.37;70.23
36254;BME280;22291;52.250;21.228;2023-05-19T12:50:17;101377.64;;;16.42;69.85
36254;BME280;22291;52.250;21.228;2023-05-19T12:52:49;101373.16;;;16.38;69.51
36254;BME280;22291;52.250;21.228;2023-05-19T12:55:18;101374.18;;;16.39;69.59
36254;BME280;22291;52.250;21.228;2023-05-19T12:57:50;101375.89;;;16.38;69.57
36254;BME280;22291;52.250;21.228;2023-05-19T13:00:23;101381.67;;;16.36;69.53
36254;BME280;22291;52.250;21.228;2023-05-19T13:03:03;101375.48;;;16.33;69.26
36254;BME280;22291;52.250;21.228;2023-05-19T13:08:09;101376.28;;;16.25;69.24
36254;BME280;22291;52.250;21.228;2023-05-19T13:10:40;101371.78;;;16.20;69.37
36254;BME280;22291;52.250;21.228;2023-05-19T13:13:07;101373.88;;;16.15;69.31
36254;BME280;22291;52.250;21.228;2023-05-19T13:15:37;101376.19;;;16.10;69.48
36254;BME280;22291;52.250;21.228;2023-05-19T13:18:11;101376.91;;;16.04;69.69
36254;BME280;22291;52.250;21.228;2023-05-19T13:20:40;101365.75;;;16.03;69.88
36254;BME280;22291;52.250;21.228;2023-05-19T13:23:09;101367.84;;;16.06;70.34
36254;BME280;22291;52.250;21.228;2023-05-19T13:25:36;101366.09;;;16.11;70.42